Time;durP1;ratioP1;P1;durP2;ratioP2;P2;SDS_P1;SDS_P2;PMS_P1;PMS_P2;Temp;Humidity;BMP_temperature;BMP_pressure;BME280_temperature;BME280_humidity;BME280_pressure;Samples;Min_cycle;Max_cycle;Signal;HPM_P1;HPM_P2
2021/08/01 00:01:19;;;;;;;34.97;12.48;;;;;;;13.22;93.11;101060.03;5014498;28;20034;-79
2021/08/01 00:03:45;;;;;;;33.55;13.00;;;;;;;13.24;93.14;101051.84;5013740;28;20121;-79
2021/08/01 00:06:10;;;;;;;37.90;13.05;;;;;;;13.19;92.92;101048.81;5014188;28;20091;-79
2021/08/01 00:08:39;;;;;;;29.08;11.25;;;;;;;13.17;92.93;101050.81;5013653;28;20030;-80
2021/08/01 00:11:04;;;;;;;42.30;13.10;;;;;;;13.15;92.84;101044.75;5014009;28;20083;-79
2021/08/01 00:13:30;;;;;;;41.10;13.10;;;;;;;13.15;92.90;101055.44;5014230;28;20449;-79
2021/08/01 00:15:55;;;;;;;43.85;14.23;;;;;;;13.12;93.31;101058.41;5012197;28;20513;-80
2021/08/01 00:18:20;;;;;;;37.20;12.77;;;;;;;13.08;93.20;101052.53;5012723;28;20034;-80
2021/08/01 00:20:46;;;;;;;40.63;13.35;;;;;;;13.02;92.84;101056.66;5011830;28;20025;-80
2021/08/01 00:23:11;;;;;;;29.85;12.63;;;;;;;12.99;93.00;101054.28;5013826;28;20072;-80
2021/08/01 00:25:37;;;;;;;35.92;13.35;;;;;;;12.98;93.02;101055.25;5013337;28;20368;-84
2021/08/01 00:28:02;;;;;;;34.83;13.77;;;;;;;12.97;93.15;101044.72;5013837;28;20038;-79
2021/08/01 00:30:28;;;;;;;34.35;13.60;;;;;;;12.97;92.91;101045.59;5013910;28;20092;-79
2021/08/01 00:32:53;;;;;;;41.50;13.23;;;;;;;13.02;93.50;101045.13;5013231;28;20038;-79
2021/08/01 00:35:19;;;;;;;32.38;12.30;;;;;;;12.98;93.02;101044.56;5013777;28;20038;-79
2021/08/01 00:37:45;;;;;;;36.47;12.07;;;;;;;12.94;93.27;101048.53;5012934;28;20026;-79
2021/08/01 00:40:11;;;;;;;26.25;11.60;;;;;;;12.92;93.01;101041.69;5013324;28;20103;-80
2021/08/01 00:42:36;;;;;;;29.63;12.07;;;;;;;12.92;93.18;101050.50;5013518;28;20121;-80
2021/08/01 00:45:02;;;;;;;26.88;11.27;;;;;;;12.92;93.42;101045.19;5013220;28;20034;-79
2021/08/01 00:47:28;;;;;;;27.38;10.98;;;;;;;12.94;93.05;101039.69;5012234;28;20034;-80
2021/08/01 00:49:53;;;;;;;21.15;9.02;;;;;;;12.95;93.08;101044.88;5012624;28;20048;-78
2021/08/01 00:52:19;;;;;;;29.08;11.00;;;;;;;13.01;93.38;101040.78;5013437;28;20069;-79
2021/08/01 00:57:17;;;;;;;29.48;11.57;;;;;;;13.05;93.41;101031.47;5012026;28;20112;-73
2021/08/01 00:59:42;;;;;;;24.48;10.40;;;;;;;13.04;93.01;101027.94;5012708;28;20038;-74
2021/08/01 01:02:13;;;;;;;23.02;10.85;;;;;;;13.05;93.36;101034.97;5012823;28;20120;-73
2021/08/01 01:05:01;;;;;;;21.23;10.70;;;;;;;13.06;93.13;101035.81;5013462;28;20030;-73
2021/08/01 01:08:02;;;;;;;24.75;10.93;;;;;;;13.07;93.08;101031.31;5013326;28;20117;-72
2021/08/01 01:10:32;;;;;;;24.42;9.90;;;;;;;13.05;92.97;101044.81;5008975;28;20043;-72
2021/08/01 01:13:14;;;;;;;22.45;10.05;;;;;;;13.05;93.56;101036.81;5012852;28;20407;-72
2021/08/01 01:15:47;;;;;;;21.35;10.02;;;;;;;13.03;93.37;101026.28;5013110;28;20042;-72
2021/08/01 01:18:19;;;;;;;24.42;10.10;;;;;;;13.04;93.56;101025.28;5013405;28;20455;-72
2021/08/01 01:21:17;;;;;;;26.10;9.05;;;;;;;13.03;93.49;101028.97;5012422;28;20044;-73
2021/08/01 01:23:52;;;;;;;32.40;10.38;;;;;;;13.05;93.53;101024.28;5012646;28;20033;-74
2021/08/01 01:26:33;;;;;;;21.40;9.88;;;;;;;13.05;93.45;101018.13;5012709;28;20119;-71
2021/08/01 01:29:18;;;;;;;22.70;10.27;;;;;;;13.06;93.03;101019.78;5012151;28;20030;-72
2021/08/01 01:31:43;;;;;;;21.88;9.45;;;;;;;13.07;93.03;101023.31;4995029;28;20026;-73
2021/08/01 01:34:31;;;;;;;29.88;11.38;;;;;;;13.08;93.43;101014.28;5012564;28;20022;-72
2021/08/01 01:37:01;;;;;;;26.90;10.27;;;;;;;13.10;93.45;101018.50;5001553;28;20042;-72
2021/08/01 01:39:29;;;;;;;23.77;10.90;;;;;;;13.15;93.28;101018.03;5012408;28;20041;-72
2021/08/01 01:41:56;;;;;;;18.48;10.20;;;;;;;13.19;93.51;101020.25;5011884;28;20026;-72
2021/08/01 01:44:22;;;;;;;23.05;10.95;;;;;;;13.22;93.31;101011.94;5012472;28;20038;-72
2021/08/01 01:46:48;;;;;;;21.10;11.02;;;;;;;13.28;93.46;101015.00;5011930;28;20036;-72
2021/08/01 01:49:14;;;;;;;20.38;10.20;;;;;;;13.33;93.67;101010.88;5012619;28;20057;-72
2021/08/01 01:51:40;;;;;;;29.48;10.57;;;;;;;13.38;93.68;101011.28;5012649;28;20041;-72
2021/08/01 01:54:07;;;;;;;22.63;9.40;;;;;;;13.42;93.24;101009.16;5012061;28;20042;-71
2021/08/01 01:56:35;;;;;;;21.08;9.73;;;;;;;13.47;93.28;101011.38;5012385;28;20062;-72
2021/08/01 01:59:02;;;;;;;18.90;9.27;;;;;;;13.48;93.28;101011.22;5011698;28;20034;-72
2021/08/01 02:01:27;;;;;;;26.00;9.63;;;;;;;13.53;93.33;100997.38;5012395;28;20034;-72
2021/08/01 02:03:52;;;;;;;16.77;8.25;;;;;;;13.52;92.76;101001.03;5011975;28;20037;-73
2021/08/01 02:06:18;;;;;;;20.83;9.15;;;;;;;13.53;92.92;100997.38;5012591;28;20121;-72
2021/08/01 02:08:49;;;;;;;20.05;8.82;;;;;;;13.53;92.61;100995.53;5012485;28;20463;-72
2021/08/01 02:11:17;;;;;;;22.90;9.60;;;;;;;13.55;92.83;100998.06;5012540;28;20049;-72
2021/08/01 02:14:02;;;;;;;20.17;9.85;;;;;;;13.54;92.52;100997.22;5013472;28;20084;-72
2021/08/01 02:16:34;;;;;;;21.13;9.73;;;;;;;13.55;92.99;101003.41;5016603;28;20470;-72
2021/08/01 02:19:04;;;;;;;22.85;10.05;;;;;;;13.56;92.62;101000.56;5016146;28;20030;-72
2021/08/01 02:21:30;;;;;;;26.75;9.77;;;;;;;13.57;92.73;100996.91;5016451;28;20033;-72
2021/08/01 02:23:58;;;;;;;23.25;9.32;;;;;;;13.57;93.08;101001.44;5015645;28;20034;-73
2021/08/01 02:26:24;;;;;;;26.60;10.50;;;;;;;13.56;92.68;101002.41;5015783;28;20601;-72
2021/08/01 02:28:51;;;;;;;22.40;9.90;;;;;;;13.55;92.87;101003.41;5015864;28;20117;-74
2021/08/01 02:31:18;;;;;;;23.42;10.20;;;;;;;13.53;92.96;100998.22;5016158;28;20022;-72
2021/08/01 02:33:45;;;;;;;28.17;10.95;;;;;;;13.57;93.06;101006.78;5015809;28;20478;-72
2021/08/01 02:36:11;;;;;;;32.42;11.13;;;;;;;13.55;93.21;100998.06;5015754;28;20060;-72
2021/08/01 02:38:39;;;;;;;31.63;10.93;;;;;;;13.54;92.86;100999.03;5015853;28;20070;-72
2021/08/01 02:41:09;;;;;;;32.88;10.93;;;;;;;13.53;93.27;100997.38;5015203;28;20088;-72
2021/08/01 02:43:34;;;;;;;34.53;11.18;;;;;;;13.52;93.14;100990.34;5016001;28;20073;-72
2021/08/01 02:46:02;;;;;;;34.53;11.57;;;;;;;13.52;92.98;100996.53;5015009;28;20033;-73
2021/08/01 02:48:28;;;;;;;34.33;11.73;;;;;;;13.50;93.38;100995.84;5015990;28;20140;-72
2021/08/01 02:50:59;;;;;;;32.30;12.07;;;;;;;13.51;93.05;100992.19;5014980;28;20034;-73
2021/08/01 02:53:25;;;;;;;;;;;;;;;13.51;93.14;101000.22;5016202;28;20030;-73
2021/08/01 02:55:53;;;;;;;47.22;13.75;;;;;;;13.49;93.55;100993.34;5015660;28;19944;-72
2021/08/01 02:58:19;;;;;;;33.33;13.07;;;;;;;13.48;93.66;100991.66;5015944;28;20034;-72
2021/08/01 03:00:47;;;;;;;41.88;13.32;;;;;;;13.47;93.45;100990.00;5015618;28;20042;-73
2021/08/01 03:03:15;;;;;;;37.60;12.52;;;;;;;13.42;93.54;100993.13;5014931;28;20354;-72
2021/08/01 03:05:43;;;;;;;54.53;15.95;;;;;;;13.38;93.08;100992.56;5015390;28;20037;-72
2021/08/01 03:08:12;;;;;;;43.70;14.25;;;;;;;13.41;93.36;100988.75;5014826;28;20090;-72
2021/08/01 03:10:42;;;;;;;50.15;15.75;;;;;;;13.40;93.37;100993.28;4998177;28;20422;-72
2021/08/01 03:13:07;;;;;;;35.90;14.45;;;;;;;13.38;93.22;100981.88;5015008;28;20037;-73
2021/08/01 03:15:32;;;;;;;46.45;15.68;;;;;;;13.39;93.51;100983.56;5015378;28;20405;-72
2021/08/01 03:17:58;;;;;;;66.40;20.10;;;;;;;13.37;93.63;100979.38;5014730;28;20488;-73
2021/08/01 03:20:23;;;;;;;66.03;18.75;;;;;;;13.36;93.56;100985.69;5015440;28;20033;-73
2021/08/01 03:22:48;;;;;;;49.83;16.75;;;;;;;13.35;93.49;100973.34;5015040;28;20474;-73
2021/08/01 03:25:14;;;;;;;64.82;19.75;;;;;;;13.36;93.87;100983.88;5014034;28;20693;-73
2021/08/01 03:27:39;;;;;;;51.38;19.48;;;;;;;13.39;94.07;100980.03;5015135;28;20105;-72
2021/08/01 03:30:05;;;;;;;48.78;18.02;;;;;;;13.38;93.84;100981.88;5013108;28;20052;-72
2021/08/01 03:32:30;;;;;;;61.08;18.90;;;;;;;13.36;93.93;100983.03;5014745;28;20091;-72
2021/08/01 03:34:56;;;;;;;62.47;19.75;;;;;;;13.33;93.67;100980.63;5014668;28;20038;-75
2021/08/01 03:37:25;;;;;;;66.57;21.38;;;;;;;13.33;93.81;100989.50;5014594;28;20145;-73
2021/08/01 03:39:51;;;;;;;64.07;22.75;;;;;;;13.38;94.30;100984.56;5014823;28;20041;-72
2021/08/01 03:42:16;;;;;;;63.17;20.40;;;;;;;13.40;94.15;100989.75;5013915;28;20067;-72
2021/08/01 03:44:41;;;;;;;73.78;23.48;;;;;;;13.43;93.99;100991.28;5014832;28;20034;-73
2021/08/01 03:47:07;;;;;;;83.38;24.77;;;;;;;13.48;94.19;100997.00;5014086;28;20133;-73
2021/08/01 03:49:32;;;;;;;73.20;23.73;;;;;;;13.52;94.17;100990.34;5014654;28;20359;-72
2021/08/01 03:51:58;;;;;;;65.00;21.20;;;;;;;13.54;94.10;100999.03;5014046;28;20030;-75
2021/08/01 03:54:23;;;;;;;63.63;21.85;;;;;;;13.56;94.56;101003.25;5014415;28;20030;-72
2021/08/01 03:56:48;;;;;;;64.95;21.90;;;;;;;13.61;94.17;100997.44;4996789;28;20050;-72
2021/08/01 03:59:14;;;;;;;67.32;22.75;;;;;;;13.68;94.30;100997.66;5013533;28;20037;-73
2021/08/01 04:01:40;;;;;;;55.15;20.85;;;;;;;13.73;94.12;100995.34;5013287;28;20038;-72
2021/08/01 04:04:06;;;;;;;68.93;21.60;;;;;;;13.74;93.89;100989.84;5013601;28;20030;-73
2021/08/01 04:06:34;;;;;;;57.17;21.17;;;;;;;13.75;94.22;100994.22;5013152;28;20426;-72
2021/08/01 04:09:00;;;;;;;64.45;22.50;;;;;;;13.82;94.08;100997.09;5013584;28;20049;-74
2021/08/01 04:11:26;;;;;;;58.28;21.15;;;;;;;13.83;94.10;100992.59;5014221;28;20426;-73
2021/08/01 04:13:51;;;;;;;60.50;21.20;;;;;;;13.86;93.99;100994.94;4996545;28;20032;-72
2021/08/01 04:16:16;;;;;;;63.55;21.52;;;;;;;13.89;93.42;100998.13;5013567;28;20084;-72
2021/08/01 04:18:42;;;;;;;63.55;22.25;;;;;;;13.91;93.56;101001.53;5013836;28;20029;-72
2021/08/01 04:21:11;;;;;;;60.28;22.65;;;;;;;13.96;93.53;101005.53;5013413;28;20034;-72
2021/08/01 04:23:38;;;;;;;60.22;22.42;;;;;;;13.97;93.47;100997.34;5013742;28;20069;-72
2021/08/01 04:26:04;;;;;;;52.25;21.13;;;;;;;14.01;93.56;101000.56;5013355;28;20038;-74
2021/08/01 04:28:30;;;;;;;47.75;20.40;;;;;;;14.03;93.16;101006.59;5013867;28;20057;-73
2021/08/01 04:30:56;;;;;;;57.45;22.27;;;;;;;14.04;93.01;101001.06;4995989;28;20486;-72
2021/08/01 04:33:21;;;;;;;54.72;21.40;;;;;;;14.08;93.30;101001.63;5013033;28;20346;-73
2021/08/01 04:35:46;;;;;;;59.83;21.23;;;;;;;14.11;93.25;101009.31;5013817;28;20065;-73
2021/08/01 04:38:12;;;;;;;53.08;20.40;;;;;;;14.10;92.76;101005.78;5012806;28;20038;-73
2021/08/01 04:40:37;;;;;;;54.20;20.63;;;;;;;14.11;92.56;101009.31;5013441;28;20034;-73
2021/08/01 04:43:03;;;;;;;52.22;20.08;;;;;;;14.09;92.62;101000.59;5013367;28;20036;-74
2021/08/01 04:45:28;;;;;;;60.45;21.48;;;;;;;14.07;92.67;101008.78;5013631;28;20038;-73
2021/08/01 04:47:54;;;;;;;48.30;19.52;;;;;;;14.08;92.67;101001.63;5013561;28;20061;-71
2021/08/01 04:50:19;;;;;;;48.13;18.73;;;;;;;14.09;92.52;101005.94;5012743;28;20037;-71
2021/08/01 04:52:44;;;;;;;50.88;19.50;;;;;;;14.10;92.53;101002.28;5013422;28;20087;-71
2021/08/01 04:55:10;;;;;;;43.33;19.02;;;;;;;14.11;92.42;100994.09;5012642;28;20042;-73
2021/08/01 04:57:36;;;;;;;53.03;22.27;;;;;;;14.09;92.55;101000.59;5013599;28;20360;-72
2021/08/01 05:00:02;;;;;;;52.42;21.58;;;;;;;14.07;92.25;100997.25;5013423;28;20041;-72
2021/08/01 05:02:27;;;;;;;53.95;21.23;;;;;;;14.10;92.81;101005.78;5012218;28;20474;-73
2021/08/01 05:04:53;;;;;;;60.72;21.33;;;;;;;14.11;92.53;101007.47;5013322;28;20030;-73
2021/08/01 05:07:18;;;;;;;45.47;19.25;;;;;;;14.11;92.64;101003.97;4995055;28;20359;-73
2021/08/01 05:09:44;;;;;;;49.45;20.55;;;;;;;14.13;92.68;100995.78;5013071;28;20416;-73
2021/08/01 05:12:09;;;;;;;53.97;21.23;;;;;;;14.11;92.71;101002.13;5012652;28;20033;-73
2021/08/01 05:14:34;;;;;;;45.63;20.52;;;;;;;14.11;92.75;101003.97;4995383;28;20029;-73
2021/08/01 05:17:00;;;;;;;47.38;20.98;;;;;;;14.13;92.93;101001.16;5013219;28;20030;-73
2021/08/01 05:19:25;;;;;;;49.88;20.33;;;;;;;14.14;92.86;100998.31;4979028;28;20072;-72
2021/08/01 05:21:50;;;;;;;52.03;20.40;;;;;;;14.14;92.68;101000.13;5013148;28;20026;-72
2021/08/01 05:24:16;;;;;;;54.03;20.52;;;;;;;14.14;92.97;100992.94;4994941;28;20053;-73
2021/08/01 05:26:41;;;;;;;53.58;21.20;;;;;;;14.16;93.03;100998.16;5012986;28;20109;-73
2021/08/01 05:29:08;;;;;;;48.40;20.55;;;;;;;14.17;93.00;100995.31;5012683;28;20120;-73
2021/08/01 05:31:33;;;;;;;55.80;22.02;;;;;;;14.18;92.81;100997.00;5012963;28;20045;-73
2021/08/01 05:33:59;;;;;;;55.55;22.88;;;;;;;14.23;92.99;100992.00;5012883;28;20034;-73
2021/08/01 05:36:24;;;;;;;49.28;21.05;;;;;;;14.28;93.02;100988.84;4978528;28;20038;-72
2021/08/01 05:38:49;;;;;;;56.00;21.92;;;;;;;14.39;92.98;100985.03;5012851;28;20040;-72
2021/08/01 05:41:15;;;;;;;47.42;19.92;;;;;;;14.45;92.82;100987.06;5012153;28;20466;-73
2021/08/01 05:43:41;;;;;;;42.67;19.70;;;;;;;14.53;92.62;100986.28;5011498;28;20045;-72
2021/08/01 05:46:10;;;;;;;46.97;20.42;;;;;;;14.59;92.44;100991.00;5012408;28;20066;-73
2021/08/01 05:48:36;;;;;;;42.17;19.10;;;;;;;14.68;92.16;100999.94;4994982;28;20386;-73
2021/08/01 05:51:07;;;;;;;43.10;20.10;;;;;;;14.83;91.92;101011.69;5012665;28;20126;-72
2021/08/01 05:53:33;;;;;;;42.50;18.35;;;;;;;14.98;91.31;101001.19;5012051;28;20033;-73
2021/08/01 05:56:06;;;;;;;36.17;17.75;;;;;;;15.25;91.26;101005.41;5012437;28;20065;-73
2021/08/01 05:58:31;;;;;;;41.00;17.52;;;;;;;15.56;90.49;101004.75;5011795;28;20422;-72
2021/08/01 06:00:57;;;;;;;33.38;15.85;;;;;;;15.89;89.00;101007.44;4995076;28;20037;-73
2021/08/01 06:03:22;;;;;;;26.25;14.70;;;;;;;16.14;87.43;101002.03;4994475;28;20041;-72
2021/08/01 06:05:47;;;;;;;29.65;14.13;;;;;;;16.32;87.05;101005.34;5011312;28;20034;-73
2021/08/01 06:08:13;;;;;;;27.92;14.30;;;;;;;16.51;85.91;101000.56;5010790;28;20061;-73
2021/08/01 06:10:38;;;;;;;23.73;13.15;;;;;;;16.68;87.03;100996.78;5012188;28;20033;-73
2021/08/01 06:13:03;;;;;;;24.88;13.65;;;;;;;16.87;86.61;100998.25;5012176;28;20478;-72
2021/08/01 06:15:29;;;;;;;23.83;12.85;;;;;;;16.98;83.64;101002.38;5012008;28;20038;-73
2021/08/01 06:17:54;;;;;;;30.23;15.43;;;;;;;17.09;85.55;101006.50;5012216;28;20115;-72
2021/08/01 06:20:19;;;;;;;25.20;13.90;;;;;;;17.03;82.79;101005.38;5010540;28;20033;-73
2021/08/01 06:22:45;;;;;;;25.80;14.30;;;;;;;16.93;83.25;101007.47;5012623;28;20430;-72
2021/08/01 06:25:10;;;;;;;30.70;14.85;;;;;;;16.76;83.29;101009.34;5011981;28;20044;-73
2021/08/01 06:27:36;;;;;;;33.05;17.20;;;;;;;16.62;84.05;101015.47;5011357;28;20105;-73
2021/08/01 06:30:02;;;;;;;35.28;17.52;;;;;;;16.28;84.64;101020.09;4994666;28;20030;-72
2021/08/01 06:32:27;;;;;;;40.30;19.85;;;;;;;15.99;86.86;101016.16;5011744;28;20034;-72
2021/08/01 06:34:53;;;;;;;41.55;22.05;;;;;;;15.73;88.48;101008.25;5012369;28;20030;-72
2021/08/01 06:37:18;;;;;;;101.18;20.15;;;;;;;15.45;89.13;101024.72;5011590;28;20117;-73
2021/08/01 06:39:43;;;;;;;83.90;21.35;;;;;;;15.24;89.85;101016.28;5012102;28;20117;-73
2021/08/01 06:42:09;;;;;;;27.85;14.73;;;;;;;15.00;90.29;101007.19;5012007;28;20030;-73
2021/08/01 06:44:34;;;;;;;47.75;16.35;;;;;;;14.78;91.01;101020.22;5011604;28;20451;-73
2021/08/01 06:47:00;;;;;;;60.45;18.38;;;;;;;14.69;91.51;101018.50;4994644;28;20026;-73
2021/08/01 06:49:25;;;;;;;45.67;22.23;;;;;;;14.60;92.00;101025.63;5011562;28;20041;-72
2021/08/01 06:51:50;;;;;;;36.85;16.55;;;;;;;14.54;91.90;101025.44;5012448;28;20088;-72
2021/08/01 06:54:19;;;;;;;31.95;17.38;;;;;;;14.49;92.24;101025.06;4997217;28;20046;-72
2021/08/01 06:56:44;;;;;;;20.85;12.55;;;;;;;14.47;92.42;101017.22;4989503;28;20572;-71
2021/08/01 06:59:09;;;;;;;18.70;12.07;;;;;;;14.50;92.86;101026.75;4988600;28;20034;-70
2021/08/01 07:01:37;;;;;;;24.63;12.75;;;;;;;14.49;92.74;101027.75;4975279;28;20035;-70
2021/08/01 07:04:03;;;;;;;27.98;14.82;;;;;;;14.50;93.05;101032.94;4993450;28;20113;-71
2021/08/01 07:06:28;;;;;;;21.65;12.35;;;;;;;14.53;93.34;101029.13;4992474;28;20128;-71
2021/08/01 07:08:53;;;;;;;15.48;9.25;;;;;;;14.52;93.01;101033.63;4993274;28;20458;-70
2021/08/01 07:11:19;;;;;;;14.10;7.75;;;;;;;14.48;92.28;101032.28;4992665;28;20052;-72
2021/08/01 07:13:45;;;;;;;10.98;5.43;;;;;;;14.42;92.06;101033.75;4992807;28;20093;-70
2021/08/01 07:16:11;;;;;;;15.02;8.30;;;;;;;14.46;91.86;101031.59;4993137;28;20109;-74
2021/08/01 07:18:36;;;;;;;14.02;8.18;;;;;;;14.50;92.61;101038.31;4992075;28;20113;-70
2021/08/01 07:21:01;;;;;;;14.77;8.07;;;;;;;14.55;92.49;101041.31;4992971;28;20057;-70
2021/08/01 07:23:27;;;;;;;15.10;7.35;;;;;;;14.62;92.96;101041.56;4992203;28;20046;-69
2021/08/01 07:25:52;;;;;;;13.60;7.45;;;;;;;14.67;92.61;101039.25;4993157;28;20061;-70
2021/08/01 07:28:18;;;;;;;13.73;7.38;;;;;;;14.79;92.51;101046.00;4993053;28;20038;-69
2021/08/01 07:30:43;;;;;;;13.77;8.40;;;;;;;15.02;92.87;101040.03;4991862;28;20073;-70
2021/08/01 07:33:08;;;;;;;10.45;6.93;;;;;;;15.27;92.77;101037.41;4975009;28;20034;-70
2021/08/01 07:35:34;;;;;;;10.85;5.90;;;;;;;15.47;91.40;101038.78;4993021;28;20088;-72
2021/08/01 07:37:59;;;;;;;9.77;5.68;;;;;;;15.73;91.02;101042.31;5012257;28;20045;-72
2021/08/01 07:40:26;;;;;;;9.98;4.90;;;;;;;15.90;90.81;101053.88;5011317;28;20109;-74
2021/08/01 07:42:51;;;;;;;11.13;5.28;;;;;;;16.09;90.42;101050.84;5012086;28;20029;-72
2021/08/01 07:45:31;;;;;;;10.77;5.70;;;;;;;16.31;89.72;101046.59;5011990;28;20041;-71
2021/08/01 07:47:56;;;;;;;13.85;5.50;;;;;;;16.55;89.21;101045.69;5011280;28;20413;-72
2021/08/01 07:50:22;;;;;;;12.63;6.97;;;;;;;16.74;89.18;101051.69;5011779;28;20045;-71
2021/08/01 07:52:47;;;;;;;11.07;5.05;;;;;;;16.75;88.13;101054.19;5011010;28;20030;-72
2021/08/01 07:55:16;;;;;;;17.80;6.60;;;;;;;16.71;87.93;101044.78;5010409;28;20050;-72
2021/08/01 07:57:43;;;;;;;8.73;4.40;;;;;;;16.57;86.58;101050.91;5011056;28;20410;-71
2021/08/01 08:00:12;;;;;;;10.90;5.22;;;;;;;16.49;87.88;101040.19;5011726;28;20091;-71
2021/08/01 08:02:37;;;;;;;8.93;4.47;;;;;;;16.38;87.46;101041.41;5011230;28;20455;-71
2021/08/01 08:05:03;;;;;;;10.85;4.95;;;;;;;16.36;87.07;101043.41;5010966;28;20040;-71
2021/08/01 08:07:28;;;;;;;11.02;5.25;;;;;;;16.33;86.83;101044.59;5010488;28;20041;-71
2021/08/01 08:09:54;;;;;;;21.17;6.00;;;;;;;16.36;88.98;101052.31;5011229;28;20038;-70
2021/08/01 08:12:19;;;;;;;10.40;5.97;;;;;;;16.31;87.78;101054.66;5010378;28;20062;-70
2021/08/01 08:14:45;;;;;;;12.70;5.95;;;;;;;16.20;87.85;101055.03;5010917;28;20544;-70
2021/08/01 08:17:10;;;;;;;7.80;4.70;;;;;;;16.03;87.18;101055.06;5011123;28;20054;-70
2021/08/01 08:19:38;;;;;;;6.63;4.63;;;;;;;15.82;87.25;101069.00;5010403;28;20483;-70
2021/08/01 08:22:04;;;;;;;11.23;6.28;;;;;;;15.74;89.06;101052.88;5011207;28;20068;-69
2021/08/01 08:24:29;;;;;;;11.60;6.28;;;;;;;15.81;89.56;101055.75;5010669;28;20064;-71
2021/08/01 08:26:55;;;;;;;6.85;4.93;;;;;;;16.07;89.55;101062.78;5011221;28;20367;-70
2021/08/01 08:29:23;;;;;;;8.70;6.28;;;;;;;16.34;89.30;101066.91;4993118;28;20113;-71
2021/08/01 08:31:53;;;;;;;11.63;6.10;;;;;;;16.59;88.18;101069.53;4993451;28;20116;-71
2021/08/01 08:34:19;;;;;;;6.80;4.65;;;;;;;16.97;86.31;101083.19;5010948;28;20061;-72
2021/08/01 08:36:50;;;;;;;10.10;6.00;;;;;;;17.03;85.81;101080.66;5010424;28;20123;-72
2021/08/01 08:39:16;;;;;;;7.35;5.32;;;;;;;17.08;84.53;101089.00;5010934;28;20041;-71
2021/08/01 08:41:42;;;;;;;55.15;8.93;;;;;;;17.22;85.82;101083.91;5009897;28;20034;-72
2021/08/01 08:44:08;;;;;;;13.68;6.80;;;;;;;17.44;84.65;101080.38;5010617;28;20100;-72
2021/08/01 08:46:35;;;;;;;7.43;5.53;;;;;;;17.60;82.45;101084.81;5010330;28;20034;-73
2021/08/01 08:49:06;;;;;;;13.48;6.38;;;;;;;17.70;84.29;101083.75;5010826;28;20030;-72
2021/08/01 08:51:32;;;;;;;9.20;6.40;;;;;;;17.90;84.19;101089.47;5009950;28;20034;-71
2021/08/01 08:53:59;;;;;;;13.25;6.57;;;;;;;18.17;80.58;101085.38;5010428;28;20034;-71
2021/08/01 08:56:24;;;;;;;7.80;5.70;;;;;;;18.41;80.14;101086.16;5010269;28;20053;-70
2021/08/01 08:58:52;;;;;;;9.32;5.47;;;;;;;18.43;80.18;101081.41;5010127;28;20034;-71
2021/08/01 09:01:18;;;;;;;8.40;5.78;;;;;;;18.11;77.58;101086.94;4993208;28;20497;-71
2021/08/01 09:03:47;;;;;;;7.20;6.05;;;;;;;18.24;81.17;101085.47;4976118;28;20541;-70
2021/08/01 09:06:13;;;;;;;9.90;5.60;;;;;;;18.74;79.82;101085.78;4992434;28;20038;-71
2021/08/01 09:08:40;;;;;;;8.15;5.63;;;;;;;19.32;77.37;101086.72;4992172;28;20041;-74
2021/08/01 09:11:05;;;;;;;12.75;5.30;;;;;;;18.95;76.81;101088.56;4993035;28;20034;-73
2021/08/01 09:13:54;;;;;;;7.57;5.55;;;;;;;18.36;79.52;101093.94;5010178;28;20041;-73
2021/08/01 09:16:22;;;;;;;9.38;5.72;;;;;;;17.76;80.83;101091.91;5010273;28;20068;-73
2021/08/01 09:18:48;;;;;;;9.52;5.47;;;;;;;17.77;80.94;101096.28;5009371;28;20045;-73
2021/08/01 09:21:31;;;;;;;5.88;5.13;;;;;;;18.04;80.59;101106.72;4976333;28;20410;-76
2021/08/01 09:23:57;;;;;;;9.45;5.75;;;;;;;18.74;79.32;101102.78;5009824;28;20030;-75
2021/08/01 09:26:22;;;;;;;6.10;4.38;;;;;;;20.44;72.24;101101.44;5009898;28;20470;-75
2021/08/01 09:29:02;;;;;;;5.35;3.95;;;;;;;22.25;66.81;101098.44;5009165;28;20046;-72
2021/08/01 09:31:27;;;;;;;4.93;3.78;;;;;;;23.28;58.87;101105.06;5009895;28;20030;-74
2021/08/01 09:33:53;;;;;;;4.13;3.30;;;;;;;22.83;58.76;101095.81;5009247;28;20038;-79
2021/08/01 09:36:22;;;;;;;6.55;4.10;;;;;;;21.36;64.07;101100.41;5009895;28;20538;-76
2021/08/01 09:38:47;;;;;;;6.10;3.75;;;;;;;20.58;66.73;101096.94;5009322;28;20034;-77
2021/08/01 09:41:15;;;;;;;5.72;4.55;;;;;;;20.66;68.82;101100.53;5009703;28;20034;-77
2021/08/01 09:43:46;;;;;;;5.45;3.97;;;;;;;20.65;65.36;101096.97;5009196;28;20033;-76
2021/08/01 09:46:11;;;;;;;6.30;3.90;;;;;;;20.87;65.54;101099.59;5010005;28;20029;-75
2021/08/01 09:48:37;;;;;;;6.15;4.65;;;;;;;20.41;66.02;101112.63;5010045;28;20044;-74
2021/08/01 09:51:05;;;;;;;8.18;4.72;;;;;;;19.74;69.44;101116.63;5009450;28;20041;-75
2021/08/01 09:53:31;;;;;;;5.93;5.25;;;;;;;19.17;72.51;101118.31;5009341;28;20488;-72
2021/08/01 09:56:17;;;;;;;7.25;5.45;;;;;;;18.97;71.72;101118.91;5009119;28;20049;-72
2021/08/01 09:58:44;;;;;;;7.70;5.20;;;;;;;19.46;73.03;101113.84;5009451;28;20046;-72
2021/08/01 10:01:10;;;;;;;9.25;5.20;;;;;;;20.42;66.48;101117.00;4991929;28;20026;-72
2021/08/01 10:03:41;;;;;;;7.30;4.22;;;;;;;20.65;64.99;101117.78;5009582;28;20045;-71
2021/08/01 10:06:09;;;;;;;;;;;;;;;20.59;66.01;101116.69;5009723;28;20572;-71
2021/08/01 10:08:37;;;;;;;10.13;4.50;;;;;;;20.22;65.98;101118.72;5009659;28;20090;-72
2021/08/01 10:11:12;;;;;;;6.18;4.07;;;;;;;20.62;63.45;101110.91;5009066;28;20103;-73
2021/08/01 10:13:38;;;;;;;7.88;4.35;;;;;;;21.37;62.30;101121.84;5009608;28;20030;-72
2021/08/01 10:16:05;;;;;;;4.68;4.18;;;;;;;21.92;60.11;101110.94;5008815;28;20152;-71
2021/08/01 10:18:31;;;;;;;4.88;3.78;;;;;;;22.09;61.86;101118.66;5009502;28;20116;-72
2021/08/01 10:20:57;;;;;;;7.60;3.95;;;;;;;21.88;59.22;101114.28;5008763;28;20122;-72
2021/08/01 10:23:25;;;;;;;6.47;4.13;;;;;;;21.40;62.29;101110.63;5009805;28;20066;-72
2021/08/01 10:25:52;;;;;;;4.40;3.35;;;;;;;20.95;61.84;101116.50;5008498;28;20034;-72
2021/08/01 10:28:23;;;;;;;6.00;4.10;;;;;;;20.18;68.31;101115.59;5009399;28;20092;-71
2021/08/01 10:30:51;;;;;;;7.82;4.13;;;;;;;19.69;66.41;101121.75;5016855;28;20053;-72
2021/08/01 10:33:22;;;;;;;4.72;3.67;;;;;;;19.20;68.38;101124.16;5031275;28;20164;-72
2021/08/01 10:36:00;;;;;;;11.05;4.50;;;;;;;18.94;68.70;101121.13;5033914;28;20045;-72
2021/08/01 10:38:30;;;;;;;4.45;3.92;;;;;;;19.03;70.20;101123.53;5035590;28;20044;-73
2021/08/01 10:40:58;;;;;;;10.15;4.15;;;;;;;19.47;66.71;101124.44;5035147;28;20063;-72
2021/08/01 10:43:29;;;;;;;10.85;3.75;;;;;;;20.30;63.92;101125.84;5035921;28;20116;-72
2021/08/01 10:45:55;;;;;;;9.25;3.45;;;;;;;20.53;64.93;101118.31;5035137;28;20032;-72
2021/08/01 10:48:25;;;;;;;4.63;3.00;;;;;;;20.91;59.05;101127.91;5035410;28;20029;-71
2021/08/01 10:50:51;;;;;;;6.80;3.28;;;;;;;21.64;60.99;101127.38;5034900;28;20040;-72
2021/08/01 10:53:27;;;;;;;8.82;3.38;;;;;;;21.71;58.15;101127.41;5035507;28;20026;-72
2021/08/01 10:56:12;;;;;;;6.53;3.10;;;;;;;21.41;59.72;101135.84;5034853;28;20054;-72
2021/08/01 10:58:38;;;;;;;4.63;2.83;;;;;;;21.17;59.36;101131.78;5034713;28;20029;-72
2021/08/01 11:01:05;;;;;;;4.85;2.67;;;;;;;20.86;60.70;101127.69;5016776;28;20032;-72
2021/08/01 11:03:36;;;;;;;5.25;3.17;;;;;;;20.76;58.88;101118.06;5018001;28;20041;-72
2021/08/01 11:06:02;;;;;;;7.03;3.08;;;;;;;20.74;60.16;101125.53;5034780;28;20117;-72
2021/08/01 11:08:28;;;;;;;7.20;3.30;;;;;;;20.81;60.86;101138.25;5034964;28;20397;-72
2021/08/01 11:11:08;;;;;;;6.90;3.40;;;;;;;20.83;59.50;101130.81;5034127;28;20026;-72
2021/08/01 11:13:38;;;;;;;5.32;3.55;;;;;;;20.43;62.11;101137.59;5035187;28;20038;-71
2021/08/01 11:16:09;;;;;;;5.38;3.08;;;;;;;20.42;61.56;101135.06;5034435;28;20033;-72
2021/08/01 11:18:43;;;;;;;5.43;3.25;;;;;;;20.02;60.56;101135.63;5035229;28;20075;-71